McElhattan, Pennsylvania
Current Conditions -  °F | °C
As of 7:54 AM on Friday 24 Oct 2014 (Local Time) from KIPT Reporting Station
Few Clouds Few Clouds  
Wind Chill: 53°   Ceiling: Unl
Heat Index: 53°   Visibility: 10mi
Dew Point: 42°   Wind: 10mph
Humidity: 66%   Direction: 270°W
Pressure: 29.93"   Gusts: NA
Location:  41.16°N, 77.36°W
Report Text: KIPT 241154Z 27009KT 10SM FEW038 12/06 A2993 RMK AO2 SLP136 T01170056 10133 20106 51003
Loading
Personal Weather Stations






























Interactive Weather Map New forecast layout! Learn more

10-Day Weather Forecast

Advertisements
Track Severe Weather on mobile